Pine Hall, NC (27042)

6:42 PM EDT on August 29, 2014 (GMT -0400)
Dillard | Change Station
CLOSE
Current Station
Personal Weather Station
Location: North Carolina, NC
Elevation: 928 ft
Nearby Weather Stations

Elev 928 ft 36.42 °N, 80.09 °W | Updated 6 minutes ago

Mostly Cloudy
Mostly Cloudy
80.8 °F
Feels Like 85 °F
N
0.0
Wind Variable Wind from SE

Today
High -- | Low -- °F
--% Chance of Precip.
Yesterday
High -- | Low -- °F
Precip. -- in
6:49 AM 7:52 PM
Waxing Crescent, 17% visible
Pressure 30.14 in
Visibility 10.0 miles
Clouds Scattered Clouds 2700 ft
Overcast 3400 ft
Heat Index 85 °F
Dew Point 71 °F
Humidity 72%
Rainfall 0.00 in
Snow Depth Not available.
UV 0 out of 12
Pollen 9.00 out of 12
Ozone Moderate
PM2.5 Moderate
Flu Activity Not available.
METAR KSIF 292235Z AUTO 00000KT 10SM SCT027 OVC034 26/21 A3014 RMK AO2 T02560210

More Conditions Fewer Conditions

Pressure 30.14 in
Visibility 10.0 miles
Clouds Scattered Clouds 2700 ft
Overcast 3400 ft
Heat Index 85 °F
Dew Point 71 °F
Humidity 72%
Rainfall 0.00 in
Snow Depth Not available.
UV 0 out of 12
Pollen 9.00 out of 12
Ozone Moderate
PM2.5 Moderate
Flu Activity Not available.
METAR KSIF 292235Z AUTO 00000KT 10SM SCT027 OVC034 26/21 A3014 RMK AO2 T02560210

More Conditions Fewer Conditions

10-Day Weather Forecast

Almanac

Astronomy

Aug. 29, 2014 Rise Set
Actual Time 6:49 AM EDT 7:52 PM EDT
Civil Twilight 6:22 AM EDT 8:18 PM EDT
Nautical Twilight 5:51 AM EDT 8:50 PM EDT
Astronomical Twilight 5:18 AM EDT 9:22 PM EDT
Moon 10:29 AM EDT 9:57 PM EDT
Length of Visible Light 13h 55m
Length of Day
13h 03m
Tomorrow will be 2m 12s shorter.
Waxing Crescent, 17% of the Moon is Illuminated
Today
Waxing Crescent
Sep 2
First Quarter
Sep 8
Full
Sep 15
Last Quarter
Sep 24
New

Today's Extremes

State Highs State Lows

Community

WunderPhotos

Upload Photos

1,748,363 photos uploaded!

Nearby

Air Quality

  Air Quality AQ Index Pollutant
Yesterday Moderate
OZONE
Yesterday Moderate
PM2.5
Current Moderate
PM2.5
Current Moderate
OZONE
Friday Moderate
PM2.5
Friday Moderate
OZONE
Saturday Moderate
PM2.5
Saturday Moderate
OZONE
Sunday Good
OZONE
Sunday Good
PM2.5
Monday Good
OZONE
Monday Good
PM2.5

Snow Depth

Station Depth Elevation
No new snow has been reported.

Earthquake Activity

City Distance Mag. Time & Date
No recent earthquake activity has been reported nearby.
Minimum magnitude displayed is 2.5.

Coastal Water Temperatures

Place Temperature
No Stations Reporting

Nearby Weather Stations